sensor_id;sensor_type;location;lat;lon;timestamp;P1;durP1;ratioP1;P2;durP2;ratioP2
20458;SDS011;10388;52.314;7.938;2023-04-30T00:00:00;5.00;;;4.03;;
20458;SDS011;10388;52.314;7.938;2023-04-30T00:02:31;4.57;;;3.73;;
20458;SDS011;10388;52.314;7.938;2023-04-30T00:05:02;4.87;;;3.50;;
20458;SDS011;10388;52.314;7.938;2023-04-30T00:07:32;4.60;;;3.83;;
20458;SDS011;10388;52.314;7.938;2023-04-30T00:10:03;6.73;;;3.83;;
20458;SDS011;10388;52.314;7.938;2023-04-30T00:12:34;8.27;;;3.70;;
20458;SDS011;10388;52.314;7.938;2023-04-30T00:15:05;4.27;;;3.47;;
20458;SDS011;10388;52.314;7.938;2023-04-30T00:17:36;4.57;;;3.70;;
20458;SDS011;10388;52.314;7.938;2023-04-30T00:20:06;5.40;;;3.83;;
20458;SDS011;10388;52.314;7.938;2023-04-30T00:22:37;4.60;;;3.00;;
20458;SDS011;10388;52.314;7.938;2023-04-30T00:25:11;4.93;;;3.33;;
20458;SDS011;10388;52.314;7.938;2023-04-30T00:27:41;5.63;;;3.97;;
20458;SDS011;10388;52.314;7.938;2023-04-30T03:31:56;6.40;;;5.10;;
20458;SDS011;10388;52.314;7.938;2023-04-30T03:34:26;8.83;;;5.37;;
20458;SDS011;10388;52.314;7.938;2023-04-30T03:36:57;12.50;;;5.23;;
20458;SDS011;10388;52.314;7.938;2023-04-30T03:39:27;8.53;;;5.70;;
20458;SDS011;10388;52.314;7.938;2023-04-30T03:41:58;5.07;;;4.57;;
20458;SDS011;10388;52.314;7.938;2023-04-30T03:44:29;6.10;;;5.00;;
20458;SDS011;10388;52.314;7.938;2023-04-30T03:46:59;5.63;;;4.50;;
20458;SDS011;10388;52.314;7.938;2023-04-30T03:49:30;6.37;;;5.20;;
20458;SDS011;10388;52.314;7.938;2023-04-30T03:52:00;9.97;;;5.40;;
20458;SDS011;10388;52.314;7.938;2023-04-30T03:54:31;7.83;;;4.60;;
20458;SDS011;10388;52.314;7.938;2023-04-30T03:57:02;7.03;;;5.00;;
20458;SDS011;10388;52.314;7.938;2023-04-30T03:59:33;6.37;;;5.20;;
20458;SDS011;10388;52.314;7.938;2023-04-30T04:02:04;7.17;;;4.73;;
20458;SDS011;10388;52.314;7.938;2023-04-30T04:04:35;8.47;;;5.57;;
20458;SDS011;10388;52.314;7.938;2023-04-30T04:07:05;7.03;;;4.83;;
20458;SDS011;10388;52.314;7.938;2023-04-30T04:09:38;6.37;;;5.13;;
20458;SDS011;10388;52.314;7.938;2023-04-30T04:12:08;8.53;;;5.77;;
20458;SDS011;10388;52.314;7.938;2023-04-30T04:14:39;8.27;;;5.87;;
20458;SDS011;10388;52.314;7.938;2023-04-30T04:17:10;5.70;;;4.87;;
20458;SDS011;10388;52.314;7.938;2023-04-30T04:19:41;6.93;;;5.27;;
20458;SDS011;10388;52.314;7.938;2023-04-30T04:22:11;6.40;;;4.73;;
20458;SDS011;10388;52.314;7.938;2023-04-30T04:24:42;6.77;;;5.33;;
20458;SDS011;10388;52.314;7.938;2023-04-30T04:27:12;10.10;;;5.77;;
20458;SDS011;10388;52.314;7.938;2023-04-30T04:29:43;7.73;;;5.27;;
20458;SDS011;10388;52.314;7.938;2023-04-30T04:32:13;10.00;;;5.63;;
20458;SDS011;10388;52.314;7.938;2023-04-30T04:34:44;7.47;;;5.40;;
20458;SDS011;10388;52.314;7.938;2023-04-30T04:37:16;8.87;;;5.50;;
20458;SDS011;10388;52.314;7.938;2023-04-30T04:39:46;7.63;;;5.10;;
20458;SDS011;10388;52.314;7.938;2023-04-30T04:42:17;6.13;;;5.33;;
20458;SDS011;10388;52.314;7.938;2023-04-30T04:44:48;6.50;;;5.13;;
20458;SDS011;10388;52.314;7.938;2023-04-30T04:47:19;9.50;;;5.43;;
20458;SDS011;10388;52.314;7.938;2023-04-30T04:49:50;7.50;;;5.87;;
20458;SDS011;10388;52.314;7.938;2023-04-30T04:52:21;11.67;;;6.00;;
20458;SDS011;10388;52.314;7.938;2023-04-30T04:54:51;9.83;;;5.60;;
20458;SDS011;10388;52.314;7.938;2023-04-30T04:57:22;8.10;;;5.20;;
20458;SDS011;10388;52.314;7.938;2023-04-30T04:59:52;8.57;;;5.27;;
20458;SDS011;10388;52.314;7.938;2023-04-30T05:02:23;6.27;;;5.13;;
20458;SDS011;10388;52.314;7.938;2023-04-30T05:04:53;7.00;;;5.70;;
20458;SDS011;10388;52.314;7.938;2023-04-30T05:07:24;7.03;;;5.93;;
20458;SDS011;10388;52.314;7.938;2023-04-30T05:09:54;9.90;;;6.67;;
20458;SDS011;10388;52.314;7.938;2023-04-30T05:12:25;9.27;;;6.80;;
20458;SDS011;10388;52.314;7.938;2023-04-30T05:14:56;8.23;;;6.10;;
20458;SDS011;10388;52.314;7.938;2023-04-30T05:17:26;13.83;;;7.27;;
20458;SDS011;10388;52.314;7.938;2023-04-30T05:19:57;8.90;;;6.90;;
20458;SDS011;10388;52.314;7.938;2023-04-30T05:22:27;8.70;;;6.80;;
20458;SDS011;10388;52.314;7.938;2023-04-30T05:24:58;8.60;;;6.87;;
20458;SDS011;10388;52.314;7.938;2023-04-30T05:27:29;10.10;;;7.10;;
20458;SDS011;10388;52.314;7.938;2023-04-30T05:29:59;10.60;;;7.47;;
20458;SDS011;10388;52.314;7.938;2023-04-30T05:32:30;9.23;;;7.07;;
20458;SDS011;10388;52.314;7.938;2023-04-30T05:35:00;9.60;;;7.20;;
20458;SDS011;10388;52.314;7.938;2023-04-30T05:37:31;16.83;;;7.30;;
20458;SDS011;10388;52.314;7.938;2023-04-30T05:40:01;8.07;;;6.50;;
20458;SDS011;10388;52.314;7.938;2023-04-30T05:42:32;10.40;;;7.50;;
20458;SDS011;10388;52.314;7.938;2023-04-30T05:45:03;8.97;;;6.00;;
20458;SDS011;10388;52.314;7.938;2023-04-30T05:47:34;8.77;;;6.83;;
20458;SDS011;10388;52.314;7.938;2023-04-30T05:50:05;9.10;;;6.50;;
20458;SDS011;10388;52.314;7.938;2023-04-30T05:52:36;9.10;;;6.47;;
20458;SDS011;10388;52.314;7.938;2023-04-30T05:55:06;8.70;;;6.00;;
20458;SDS011;10388;52.314;7.938;2023-04-30T05:57:38;9.83;;;6.17;;
20458;SDS011;10388;52.314;7.938;2023-04-30T06:00:09;8.73;;;5.97;;
20458;SDS011;10388;52.314;7.938;2023-04-30T06:02:40;9.07;;;5.90;;
20458;SDS011;10388;52.314;7.938;2023-04-30T06:05:10;8.57;;;5.40;;
20458;SDS011;10388;52.314;7.938;2023-04-30T06:07:41;9.03;;;5.60;;
20458;SDS011;10388;52.314;7.938;2023-04-30T06:10:11;11.80;;;5.27;;
20458;SDS011;10388;52.314;7.938;2023-04-30T06:12:42;9.87;;;5.07;;
20458;SDS011;10388;52.314;7.938;2023-04-30T06:15:12;8.13;;;5.03;;
20458;SDS011;10388;52.314;7.938;2023-04-30T06:17:43;11.20;;;4.30;;
20458;SDS011;10388;52.314;7.938;2023-04-30T06:20:13;7.07;;;4.47;;
20458;SDS011;10388;52.314;7.938;2023-04-30T06:22:45;10.37;;;4.77;;
20458;SDS011;10388;52.314;7.938;2023-04-30T06:25:15;7.03;;;3.70;;
20458;SDS011;10388;52.314;7.938;2023-04-30T06:27:46;11.47;;;4.20;;
20458;SDS011;10388;52.314;7.938;2023-04-30T06:30:16;9.73;;;4.23;;
20458;SDS011;10388;52.314;7.938;2023-04-30T06:32:48;7.87;;;4.03;;
20458;SDS011;10388;52.314;7.938;2023-04-30T06:35:19;9.07;;;4.33;;
20458;SDS011;10388;52.314;7.938;2023-04-30T06:37:49;11.27;;;3.90;;
20458;SDS011;10388;52.314;7.938;2023-04-30T06:40:20;8.97;;;4.77;;
20458;SDS011;10388;52.314;7.938;2023-04-30T06:42:50;4.50;;;3.27;;
20458;SDS011;10388;52.314;7.938;2023-04-30T06:45:21;7.33;;;4.33;;
20458;SDS011;10388;52.314;7.938;2023-04-30T06:47:51;5.10;;;3.30;;
20458;SDS011;10388;52.314;7.938;2023-04-30T06:50:22;6.33;;;3.20;;
20458;SDS011;10388;52.314;7.938;2023-04-30T06:52:52;6.20;;;3.40;;
20458;SDS011;10388;52.314;7.938;2023-04-30T06:55:23;6.33;;;3.50;;
20458;SDS011;10388;52.314;7.938;2023-04-30T06:57:54;12.00;;;4.33;;
20458;SDS011;10388;52.314;7.938;2023-04-30T07:00:25;8.57;;;3.67;;
20458;SDS011;10388;52.314;7.938;2023-04-30T07:02:55;6.90;;;3.67;;
20458;SDS011;10388;52.314;7.938;2023-04-30T07:05:31;7.63;;;3.60;;
20458;SDS011;10388;52.314;7.938;2023-04-30T07:08:02;10.17;;;3.37;;
20458;SDS011;10388;52.314;7.938;2023-04-30T07:10:33;7.30;;;3.00;;
20458;SDS011;10388;52.314;7.938;2023-04-30T07:13:04;7.07;;;3.30;;
20458;SDS011;10388;52.314;7.938;2023-04-30T07:15:34;6.17;;;2.67;;
20458;SDS011;10388;52.314;7.938;2023-04-30T07:18:06;6.80;;;2.23;;
20458;SDS011;10388;52.314;7.938;2023-04-30T07:20:36;5.13;;;2.60;;
20458;SDS011;10388;52.314;7.938;2023-04-30T07:23:07;6.90;;;2.43;;
20458;SDS011;10388;52.314;7.938;2023-04-30T07:25:37;7.83;;;2.47;;
20458;SDS011;10388;52.314;7.938;2023-04-30T07:28:08;6.67;;;2.50;;
20458;SDS011;10388;52.314;7.938;2023-04-30T07:30:39;6.80;;;2.50;;
20458;SDS011;10388;52.314;7.938;2023-04-30T07:33:10;5.40;;;2.57;;
20458;SDS011;10388;52.314;7.938;2023-04-30T07:35:41;4.07;;;2.10;;
20458;SDS011;10388;52.314;7.938;2023-04-30T07:38:12;7.03;;;2.50;;
20458;SDS011;10388;52.314;7.938;2023-04-30T07:40:42;9.33;;;2.73;;
20458;SDS011;10388;52.314;7.938;2023-04-30T07:43:13;6.50;;;2.37;;
20458;SDS011;10388;52.314;7.938;2023-04-30T07:45:44;9.03;;;2.83;;
20458;SDS011;10388;52.314;7.938;2023-04-30T07:48:14;7.23;;;2.40;;
20458;SDS011;10388;52.314;7.938;2023-04-30T07:50:48;5.23;;;2.50;;
20458;SDS011;10388;52.314;7.938;2023-04-30T07:53:19;5.27;;;2.50;;
20458;SDS011;10388;52.314;7.938;2023-04-30T07:55:50;3.53;;;2.00;;
20458;SDS011;10388;52.314;7.938;2023-04-30T07:58:20;5.30;;;2.40;;
20458;SDS011;10388;52.314;7.938;2023-04-30T08:00:51;7.03;;;2.40;;
20458;SDS011;10388;52.314;7.938;2023-04-30T08:03:21;8.17;;;3.20;;
20458;SDS011;10388;52.314;7.938;2023-04-30T08:05:52;6.83;;;2.50;;
20458;SDS011;10388;52.314;7.938;2023-04-30T08:08:22;5.97;;;2.53;;
20458;SDS011;10388;52.314;7.938;2023-04-30T08:10:53;6.37;;;2.27;;
20458;SDS011;10388;52.314;7.938;2023-04-30T08:13:23;4.63;;;2.40;;
20458;SDS011;10388;52.314;7.938;2023-04-30T08:15:54;5.37;;;3.10;;
20458;SDS011;10388;52.314;7.938;2023-04-30T08:18:24;6.47;;;2.77;;
20458;SDS011;10388;52.314;7.938;2023-04-30T08:20:55;6.40;;;2.47;;
20458;SDS011;10388;52.314;7.938;2023-04-30T08:23:26;7.97;;;2.50;;
20458;SDS011;10388;52.314;7.938;2023-04-30T08:25:56;4.90;;;2.40;;
20458;SDS011;10388;52.314;7.938;2023-04-30T08:28:27;5.30;;;2.47;;
20458;SDS011;10388;52.314;7.938;2023-04-30T08:30:57;9.27;;;3.40;;
20458;SDS011;10388;52.314;7.938;2023-04-30T08:33:28;5.70;;;2.83;;
20458;SDS011;10388;52.314;7.938;2023-04-30T08:35:59;9.17;;;2.93;;
20458;SDS011;10388;52.314;7.938;2023-04-30T08:38:30;6.90;;;2.90;;
20458;SDS011;10388;52.314;7.938;2023-04-30T08:41:04;6.30;;;2.57;;
20458;SDS011;10388;52.314;7.938;2023-04-30T08:43:40;5.43;;;2.60;;
20458;SDS011;10388;52.314;7.938;2023-04-30T08:46:11;6.67;;;2.57;;
20458;SDS011;10388;52.314;7.938;2023-04-30T08:48:45;7.63;;;2.70;;
20458;SDS011;10388;52.314;7.938;2023-04-30T08:51:17;6.93;;;2.60;;
20458;SDS011;10388;52.314;7.938;2023-04-30T08:53:49;6.27;;;2.53;;
20458;SDS011;10388;52.314;7.938;2023-04-30T08:56:23;5.03;;;2.57;;
20458;SDS011;10388;52.314;7.938;2023-04-30T08:58:54;5.57;;;1.93;;
20458;SDS011;10388;52.314;7.938;2023-04-30T09:01:25;4.27;;;2.10;;
20458;SDS011;10388;52.314;7.938;2023-04-30T09:03:58;5.83;;;2.27;;
20458;SDS011;10388;52.314;7.938;2023-04-30T09:06:29;5.43;;;2.00;;
20458;SDS011;10388;52.314;7.938;2023-04-30T09:09:13;3.17;;;1.90;;
20458;SDS011;10388;52.314;7.938;2023-04-30T09:11:44;3.67;;;2.57;;
20458;SDS011;10388;52.314;7.938;2023-04-30T09:14:19;6.63;;;2.60;;
20458;SDS011;10388;52.314;7.938;2023-04-30T09:16:54;4.13;;;2.37;;
20458;SDS011;10388;52.314;7.938;2023-04-30T09:19:25;4.87;;;2.27;;
20458;SDS011;10388;52.314;7.938;2023-04-30T09:21:57;5.30;;;2.30;;
20458;SDS011;10388;52.314;7.938;2023-04-30T09:24:28;6.63;;;2.57;;
20458;SDS011;10388;52.314;7.938;2023-04-30T09:27:19;3.27;;;2.47;;
20458;SDS011;10388;52.314;7.938;2023-04-30T09:29:51;5.37;;;2.57;;
20458;SDS011;10388;52.314;7.938;2023-04-30T09:32:21;6.30;;;2.17;;
20458;SDS011;10388;52.314;7.938;2023-04-30T09:34:52;5.07;;;2.80;;
20458;SDS011;10388;52.314;7.938;2023-04-30T09:37:33;5.70;;;2.40;;
20458;SDS011;10388;52.314;7.938;2023-04-30T09:40:07;7.30;;;2.73;;
20458;SDS011;10388;52.314;7.938;2023-04-30T09:42:38;3.13;;;1.93;;
20458;SDS011;10388;52.314;7.938;2023-04-30T09:45:09;4.37;;;2.10;;
20458;SDS011;10388;52.314;7.938;2023-04-30T09:47:41;5.70;;;2.23;;
20458;SDS011;10388;52.314;7.938;2023-04-30T09:50:12;4.83;;;2.20;;
20458;SDS011;10388;52.314;7.938;2023-04-30T09:52:47;7.83;;;2.50;;
20458;SDS011;10388;52.314;7.938;2023-04-30T09:55:22;5.60;;;2.10;;
20458;SDS011;10388;52.314;7.938;2023-04-30T09:57:53;4.47;;;2.50;;
20458;SDS011;10388;52.314;7.938;2023-04-30T10:00:24;4.17;;;2.60;;
20458;SDS011;10388;52.314;7.938;2023-04-30T10:02:55;4.03;;;2.30;;
20458;SDS011;10388;52.314;7.938;2023-04-30T10:05:28;4.00;;;2.53;;
20458;SDS011;10388;52.314;7.938;2023-04-30T10:08:01;2.43;;;2.20;;
20458;SDS011;10388;52.314;7.938;2023-04-30T10:10:33;4.20;;;2.20;;
20458;SDS011;10388;52.314;7.938;2023-04-30T10:13:09;8.23;;;2.20;;
20458;SDS011;10388;52.314;7.938;2023-04-30T10:15:44;4.03;;;2.33;;
20458;SDS011;10388;52.314;7.938;2023-04-30T10:18:33;4.27;;;2.33;;
20458;SDS011;10388;52.314;7.938;2023-04-30T10:21:06;5.17;;;2.50;;
20458;SDS011;10388;52.314;7.938;2023-04-30T10:23:42;6.63;;;2.40;;
20458;SDS011;10388;52.314;7.938;2023-04-30T10:26:13;7.37;;;2.50;;
20458;SDS011;10388;52.314;7.938;2023-04-30T10:28:45;5.40;;;2.50;;
20458;SDS011;10388;52.314;7.938;2023-04-30T10:31:19;4.53;;;2.50;;
20458;SDS011;10388;52.314;7.938;2023-04-30T10:36:46;4.23;;;2.13;;
20458;SDS011;10388;52.314;7.938;2023-04-30T10:39:20;4.20;;;2.00;;
20458;SDS011;10388;52.314;7.938;2023-04-30T10:41:59;2.20;;;1.70;;
20458;SDS011;10388;52.314;7.938;2023-04-30T10:44:37;3.17;;;2.03;;
20458;SDS011;10388;52.314;7.938;2023-04-30T10:47:08;5.53;;;2.40;;
20458;SDS011;10388;52.314;7.938;2023-04-30T10:49:39;2.50;;;2.20;;
20458;SDS011;10388;52.314;7.938;2023-04-30T10:52:25;5.83;;;2.30;;
20458;SDS011;10388;52.314;7.938;2023-04-30T10:54:57;6.50;;;2.73;;
20458;SDS011;10388;52.314;7.938;2023-04-30T10:57:28;4.97;;;2.60;;
20458;SDS011;10388;52.314;7.938;2023-04-30T11:05:13;4.27;;;2.07;;
20458;SDS011;10388;52.314;7.938;2023-04-30T11:07:48;4.40;;;2.07;;
20458;SDS011;10388;52.314;7.938;2023-04-30T11:10:27;2.73;;;2.17;;
20458;SDS011;10388;52.314;7.938;2023-04-30T11:13:04;3.43;;;2.00;;
20458;SDS011;10388;52.314;7.938;2023-04-30T11:15:39;3.43;;;2.30;;
20458;SDS011;10388;52.314;7.938;2023-04-30T11:18:11;4.90;;;2.97;;
20458;SDS011;10388;52.314;7.938;2023-04-30T11:20:51;5.90;;;2.60;;
20458;SDS011;10388;52.314;7.938;2023-04-30T11:23:22;7.77;;;3.17;;
20458;SDS011;10388;52.314;7.938;2023-04-30T11:25:55;3.70;;;2.20;;
20458;SDS011;10388;52.314;7.938;2023-04-30T11:28:28;6.73;;;3.20;;
20458;SDS011;10388;52.314;7.938;2023-04-30T11:31:00;4.83;;;2.37;;
20458;SDS011;10388;52.314;7.938;2023-04-30T11:33:31;5.23;;;2.70;;
20458;SDS011;10388;52.314;7.938;2023-04-30T11:36:02;4.83;;;2.70;;
20458;SDS011;10388;52.314;7.938;2023-04-30T11:38:34;4.37;;;2.40;;
20458;SDS011;10388;52.314;7.938;2023-04-30T11:41:05;5.87;;;2.40;;
20458;SDS011;10388;52.314;7.938;2023-04-30T11:43:36;4.87;;;2.43;;
20458;SDS011;10388;52.314;7.938;2023-04-30T11:46:08;4.10;;;1.90;;
20458;SDS011;10388;52.314;7.938;2023-04-30T11:48:39;4.87;;;2.00;;
20458;SDS011;10388;52.314;7.938;2023-04-30T11:53:50;3.93;;;2.00;;
20458;SDS011;10388;52.314;7.938;2023-04-30T11:56:21;3.57;;;2.13;;
20458;SDS011;10388;52.314;7.938;2023-04-30T11:58:53;5.97;;;2.40;;
20458;SDS011;10388;52.314;7.938;2023-04-30T12:01:25;4.80;;;2.37;;
20458;SDS011;10388;52.314;7.938;2023-04-30T12:03:57;5.30;;;1.90;;
20458;SDS011;10388;52.314;7.938;2023-04-30T12:06:28;4.37;;;1.83;;
20458;SDS011;10388;52.314;7.938;2023-04-30T12:09:00;3.37;;;1.70;;
20458;SDS011;10388;52.314;7.938;2023-04-30T12:11:34;3.93;;;1.83;;
20458;SDS011;10388;52.314;7.938;2023-04-30T12:16:40;4.23;;;1.80;;
20458;SDS011;10388;52.314;7.938;2023-04-30T12:19:14;5.57;;;2.10;;
20458;SDS011;10388;52.314;7.938;2023-04-30T12:21:47;3.77;;;1.90;;
20458;SDS011;10388;52.314;7.938;2023-04-30T12:24:18;4.67;;;1.80;;
20458;SDS011;10388;52.314;7.938;2023-04-30T12:26:49;4.23;;;1.97;;
20458;SDS011;10388;52.314;7.938;2023-04-30T12:29:22;4.03;;;1.67;;
20458;SDS011;10388;52.314;7.938;2023-04-30T12:31:54;2.90;;;1.90;;
20458;SDS011;10388;52.314;7.938;2023-04-30T12:34:25;3.43;;;2.03;;
20458;SDS011;10388;52.314;7.938;2023-04-30T12:36:56;5.10;;;2.20;;
20458;SDS011;10388;52.314;7.938;2023-04-30T12:39:31;4.77;;;2.47;;
20458;SDS011;10388;52.314;7.938;2023-04-30T12:42:03;3.67;;;1.80;;
20458;SDS011;10388;52.314;7.938;2023-04-30T12:44:41;3.10;;;1.80;;
20458;SDS011;10388;52.314;7.938;2023-04-30T12:47:14;5.43;;;2.43;;
20458;SDS011;10388;52.314;7.938;2023-04-30T12:49:45;4.77;;;2.10;;
20458;SDS011;10388;52.314;7.938;2023-04-30T12:52:16;4.60;;;2.10;;
20458;SDS011;10388;52.314;7.938;2023-04-30T12:54:46;3.27;;;2.10;;
20458;SDS011;10388;52.314;7.938;2023-04-30T12:57:17;3.93;;;2.50;;
20458;SDS011;10388;52.314;7.938;2023-04-30T13:02:22;4.53;;;2.17;;
20458;SDS011;10388;52.314;7.938;2023-04-30T13:04:54;4.53;;;1.80;;
20458;SDS011;10388;52.314;7.938;2023-04-30T13:07:25;3.90;;;2.10;;
20458;SDS011;10388;52.314;7.938;2023-04-30T13:10:05;2.70;;;1.50;;
20458;SDS011;10388;52.314;7.938;2023-04-30T13:12:36;2.37;;;1.80;;
20458;SDS011;10388;52.314;7.938;2023-04-30T13:15:06;2.67;;;1.60;;
20458;SDS011;10388;52.314;7.938;2023-04-30T13:17:37;4.13;;;1.80;;
20458;SDS011;10388;52.314;7.938;2023-04-30T13:20:08;2.43;;;1.50;;
20458;SDS011;10388;52.314;7.938;2023-04-30T13:22:39;2.83;;;1.50;;
20458;SDS011;10388;52.314;7.938;2023-04-30T13:25:10;3.00;;;1.50;;
20458;SDS011;10388;52.314;7.938;2023-04-30T13:27:41;3.47;;;1.60;;
20458;SDS011;10388;52.314;7.938;2023-04-30T13:30:11;2.63;;;1.53;;
20458;SDS011;10388;52.314;7.938;2023-04-30T13:32:42;4.10;;;1.67;;
20458;SDS011;10388;52.314;7.938;2023-04-30T13:35:13;5.33;;;1.60;;
20458;SDS011;10388;52.314;7.938;2023-04-30T13:37:44;3.07;;;1.50;;
20458;SDS011;10388;52.314;7.938;2023-04-30T13:40:17;2.23;;;1.53;;
20458;SDS011;10388;52.314;7.938;2023-04-30T13:42:48;3.83;;;1.63;;
20458;SDS011;10388;52.314;7.938;2023-04-30T13:45:19;3.23;;;1.50;;
20458;SDS011;10388;52.314;7.938;2023-04-30T13:47:49;2.37;;;1.53;;
20458;SDS011;10388;52.314;7.938;2023-04-30T13:50:20;2.93;;;1.63;;
20458;SDS011;10388;52.314;7.938;2023-04-30T13:52:50;1.83;;;1.60;;
20458;SDS011;10388;52.314;7.938;2023-04-30T13:55:21;3.20;;;1.70;;
20458;SDS011;10388;52.314;7.938;2023-04-30T13:57:51;2.33;;;1.80;;
20458;SDS011;10388;52.314;7.938;2023-04-30T14:00:22;3.93;;;1.50;;
20458;SDS011;10388;52.314;7.938;2023-04-30T14:02:53;4.40;;;1.70;;
20458;SDS011;10388;52.314;7.938;2023-04-30T14:05:24;2.50;;;1.17;;
20458;SDS011;10388;52.314;7.938;2023-04-30T14:07:55;2.73;;;1.20;;
20458;SDS011;10388;52.314;7.938;2023-04-30T14:10:25;2.37;;;1.50;;
20458;SDS011;10388;52.314;7.938;2023-04-30T14:12:56;2.93;;;1.60;;
20458;SDS011;10388;52.314;7.938;2023-04-30T14:15:26;3.13;;;1.53;;
20458;SDS011;10388;52.314;7.938;2023-04-30T14:17:59;3.63;;;1.50;;
20458;SDS011;10388;52.314;7.938;2023-04-30T14:20:30;4.70;;;1.50;;
20458;SDS011;10388;52.314;7.938;2023-04-30T14:23:00;3.10;;;1.60;;
20458;SDS011;10388;52.314;7.938;2023-04-30T14:25:32;3.73;;;1.67;;
20458;SDS011;10388;52.314;7.938;2023-04-30T14:28:03;2.93;;;1.30;;
20458;SDS011;10388;52.314;7.938;2023-04-30T14:30:33;3.93;;;1.60;;
20458;SDS011;10388;52.314;7.938;2023-04-30T14:33:04;2.00;;;1.40;;
20458;SDS011;10388;52.314;7.938;2023-04-30T14:35:35;5.40;;;1.97;;
20458;SDS011;10388;52.314;7.938;2023-04-30T14:38:06;2.93;;;1.67;;
20458;SDS011;10388;52.314;7.938;2023-04-30T14:40:36;2.67;;;1.77;;
20458;SDS011;10388;52.314;7.938;2023-04-30T14:43:07;3.47;;;1.70;;
20458;SDS011;10388;52.314;7.938;2023-04-30T14:45:37;1.60;;;1.40;;
20458;SDS011;10388;52.314;7.938;2023-04-30T14:48:09;2.70;;;1.53;;
20458;SDS011;10388;52.314;7.938;2023-04-30T14:50:40;4.40;;;1.43;;
20458;SDS011;10388;52.314;7.938;2023-04-30T14:53:12;2.17;;;1.57;;
20458;SDS011;10388;52.314;7.938;2023-04-30T14:55:43;1.83;;;1.47;;
20458;SDS011;10388;52.314;7.938;2023-04-30T14:58:13;5.30;;;1.73;;
20458;SDS011;10388;52.314;7.938;2023-04-30T15:00:44;3.50;;;1.77;;
20458;SDS011;10388;52.314;7.938;2023-04-30T15:03:16;3.63;;;1.67;;
20458;SDS011;10388;52.314;7.938;2023-04-30T15:05:46;2.47;;;1.57;;
20458;SDS011;10388;52.314;7.938;2023-04-30T15:08:18;2.37;;;1.60;;
20458;SDS011;10388;52.314;7.938;2023-04-30T15:10:49;3.10;;;1.70;;
20458;SDS011;10388;52.314;7.938;2023-04-30T15:13:20;3.37;;;1.80;;
20458;SDS011;10388;52.314;7.938;2023-04-30T15:15:50;2.77;;;1.77;;
20458;SDS011;10388;52.314;7.938;2023-04-30T15:18:21;4.80;;;1.90;;
20458;SDS011;10388;52.314;7.938;2023-04-30T15:20:51;3.23;;;1.67;;
20458;SDS011;10388;52.314;7.938;2023-04-30T15:23:22;3.50;;;1.67;;
20458;SDS011;10388;52.314;7.938;2023-04-30T15:25:52;3.20;;;1.40;;
20458;SDS011;10388;52.314;7.938;2023-04-30T15:28:24;2.33;;;1.43;;
20458;SDS011;10388;52.314;7.938;2023-04-30T15:30:54;4.33;;;1.80;;
20458;SDS011;10388;52.314;7.938;2023-04-30T15:33:25;3.43;;;1.57;;
20458;SDS011;10388;52.314;7.938;2023-04-30T15:35:57;3.90;;;1.70;;
20458;SDS011;10388;52.314;7.938;2023-04-30T15:38:28;4.27;;;1.70;;
20458;SDS011;10388;52.314;7.938;2023-04-30T15:40:59;3.37;;;1.50;;
20458;SDS011;10388;52.314;7.938;2023-04-30T15:43:29;3.43;;;1.77;;
20458;SDS011;10388;52.314;7.938;2023-04-30T15:46:01;3.73;;;1.67;;
20458;SDS011;10388;52.314;7.938;2023-04-30T15:48:32;3.77;;;1.60;;
20458;SDS011;10388;52.314;7.938;2023-04-30T15:51:02;1.73;;;1.30;;
20458;SDS011;10388;52.314;7.938;2023-04-30T15:53:33;2.00;;;1.17;;
20458;SDS011;10388;52.314;7.938;2023-04-30T15:56:03;2.87;;;1.50;;
20458;SDS011;10388;52.314;7.938;2023-04-30T15:58:34;4.13;;;1.50;;
20458;SDS011;10388;52.314;7.938;2023-04-30T16:01:05;2.93;;;1.17;;
20458;SDS011;10388;52.314;7.938;2023-04-30T16:03:35;3.93;;;1.60;;
20458;SDS011;10388;52.314;7.938;2023-04-30T16:06:06;3.93;;;2.43;;
20458;SDS011;10388;52.314;7.938;2023-04-30T16:08:37;6.27;;;2.67;;
20458;SDS011;10388;52.314;7.938;2023-04-30T16:11:07;2.23;;;1.60;;
20458;SDS011;10388;52.314;7.938;2023-04-30T16:13:39;2.67;;;1.40;;
20458;SDS011;10388;52.314;7.938;2023-04-30T16:16:10;3.07;;;1.60;;
20458;SDS011;10388;52.314;7.938;2023-04-30T16:18:41;3.33;;;1.50;;
20458;SDS011;10388;52.314;7.938;2023-04-30T16:21:11;2.60;;;1.63;;
20458;SDS011;10388;52.314;7.938;2023-04-30T16:23:42;3.80;;;1.40;;
20458;SDS011;10388;52.314;7.938;2023-04-30T16:26:12;2.43;;;1.60;;
20458;SDS011;10388;52.314;7.938;2023-04-30T16:28:44;1.97;;;1.37;;
20458;SDS011;10388;52.314;7.938;2023-04-30T16:31:15;2.80;;;1.70;;
20458;SDS011;10388;52.314;7.938;2023-04-30T16:33:50;4.90;;;1.80;;
20458;SDS011;10388;52.314;7.938;2023-04-30T16:36:20;2.47;;;1.67;;
20458;SDS011;10388;52.314;7.938;2023-04-30T16:38:51;2.97;;;1.77;;
20458;SDS011;10388;52.314;7.938;2023-04-30T16:41:21;3.40;;;1.87;;
20458;SDS011;10388;52.314;7.938;2023-04-30T16:43:52;4.77;;;1.90;;
20458;SDS011;10388;52.314;7.938;2023-04-30T16:46:22;3.53;;;1.57;;
20458;SDS011;10388;52.314;7.938;2023-04-30T16:48:53;7.63;;;4.77;;
20458;SDS011;10388;52.314;7.938;2023-04-30T16:51:23;6.53;;;2.37;;
20458;SDS011;10388;52.314;7.938;2023-04-30T16:53:56;7.10;;;3.73;;
20458;SDS011;10388;52.314;7.938;2023-04-30T16:56:26;3.87;;;2.03;;
20458;SDS011;10388;52.314;7.938;2023-04-30T16:58:57;4.00;;;2.47;;
20458;SDS011;10388;52.314;7.938;2023-04-30T17:01:28;3.03;;;2.33;;
20458;SDS011;10388;52.314;7.938;2023-04-30T17:03:58;2.43;;;1.27;;
20458;SDS011;10388;52.314;7.938;2023-04-30T17:06:29;3.60;;;2.83;;
20458;SDS011;10388;52.314;7.938;2023-04-30T17:08:59;2.97;;;1.80;;
20458;SDS011;10388;52.314;7.938;2023-04-30T17:11:33;5.57;;;1.87;;
20458;SDS011;10388;52.314;7.938;2023-04-30T17:14:03;3.40;;;1.63;;
20458;SDS011;10388;52.314;7.938;2023-04-30T17:16:34;8.67;;;6.90;;
20458;SDS011;10388;52.314;7.938;2023-04-30T17:19:07;3.97;;;3.00;;
20458;SDS011;10388;52.314;7.938;2023-04-30T17:21:37;9.73;;;7.83;;
20458;SDS011;10388;52.314;7.938;2023-04-30T17:24:08;5.53;;;4.33;;
20458;SDS011;10388;52.314;7.938;2023-04-30T17:26:38;8.57;;;5.40;;
20458;SDS011;10388;52.314;7.938;2023-04-30T17:29:09;4.00;;;3.30;;
20458;SDS011;10388;52.314;7.938;2023-04-30T17:31:40;6.77;;;4.53;;
20458;SDS011;10388;52.314;7.938;2023-04-30T17:34:10;8.53;;;7.50;;
20458;SDS011;10388;52.314;7.938;2023-04-30T17:36:41;4.93;;;4.43;;
20458;SDS011;10388;52.314;7.938;2023-04-30T17:39:13;4.77;;;4.37;;
20458;SDS011;10388;52.314;7.938;2023-04-30T17:41:44;1.70;;;1.30;;
20458;SDS011;10388;52.314;7.938;2023-04-30T17:44:15;2.20;;;1.70;;
20458;SDS011;10388;52.314;7.938;2023-04-30T17:46:46;3.17;;;1.70;;
20458;SDS011;10388;52.314;7.938;2023-04-30T17:49:16;3.53;;;1.30;;
20458;SDS011;10388;52.314;7.938;2023-04-30T17:51:47;2.87;;;1.20;;
20458;SDS011;10388;52.314;7.938;2023-04-30T17:54:17;2.10;;;1.33;;
20458;SDS011;10388;52.314;7.938;2023-04-30T17:56:48;2.63;;;1.30;;
20458;SDS011;10388;52.314;7.938;2023-04-30T17:59:19;1.90;;;1.40;;
20458;SDS011;10388;52.314;7.938;2023-04-30T18:01:50;4.63;;;2.20;;
20458;SDS011;10388;52.314;7.938;2023-04-30T18:04:20;6.27;;;3.93;;
20458;SDS011;10388;52.314;7.938;2023-04-30T18:06:51;4.50;;;3.30;;
20458;SDS011;10388;52.314;7.938;2023-04-30T18:09:21;5.07;;;2.07;;
20458;SDS011;10388;52.314;7.938;2023-04-30T18:11:52;3.67;;;2.47;;
20458;SDS011;10388;52.314;7.938;2023-04-30T18:14:24;5.03;;;3.27;;
20458;SDS011;10388;52.314;7.938;2023-04-30T18:16:54;5.10;;;2.87;;
20458;SDS011;10388;52.314;7.938;2023-04-30T18:19:25;4.27;;;1.93;;
20458;SDS011;10388;52.314;7.938;2023-04-30T18:21:55;2.20;;;1.63;;
20458;SDS011;10388;52.314;7.938;2023-04-30T18:24:26;3.40;;;1.90;;
20458;SDS011;10388;52.314;7.938;2023-04-30T18:26:57;3.63;;;1.63;;
20458;SDS011;10388;52.314;7.938;2023-04-30T18:29:27;2.43;;;1.47;;